sensor_id;sensor_type;location;lat;lon;timestamp;temperature;humidity
19817;DHT22;68323;49.394;8.434;2023-07-02T00:01:03;19.20;99.90
19817;DHT22;68323;49.394;8.434;2023-07-02T00:03:29;19.20;99.90
19817;DHT22;68323;49.394;8.434;2023-07-02T00:05:54;19.20;99.90
19817;DHT22;68323;49.394;8.434;2023-07-02T00:08:22;19.20;99.90
19817;DHT22;68323;49.394;8.434;2023-07-02T00:10:47;19.20;99.90
19817;DHT22;68323;49.394;8.434;2023-07-02T00:13:14;19.20;99.90
19817;DHT22;68323;49.394;8.434;2023-07-02T00:15:39;19.20;99.90
19817;DHT22;68323;49.394;8.434;2023-07-02T00:18:05;19.30;99.90
19817;DHT22;68323;49.394;8.434;2023-07-02T00:20:30;19.20;99.90
19817;DHT22;68323;49.394;8.434;2023-07-02T00:23:00;19.20;99.90
19817;DHT22;68323;49.394;8.434;2023-07-02T00:25:26;19.20;99.90
19817;DHT22;68323;49.394;8.434;2023-07-02T00:27:51;19.20;99.90
19817;DHT22;68323;49.394;8.434;2023-07-02T00:30:17;19.20;99.90
19817;DHT22;68323;49.394;8.434;2023-07-02T00:32:42;19.20;99.90
19817;DHT22;68323;49.394;8.434;2023-07-02T00:35:08;19.10;99.90
19817;DHT22;68323;49.394;8.434;2023-07-02T00:37:33;19.20;99.90
19817;DHT22;68323;49.394;8.434;2023-07-02T00:39:59;19.20;99.90
19817;DHT22;68323;49.394;8.434;2023-07-02T00:42:24;19.10;99.90
19817;DHT22;68323;49.394;8.434;2023-07-02T00:44:54;19.10;99.90
19817;DHT22;68323;49.394;8.434;2023-07-02T00:47:22;19.10;99.90
19817;DHT22;68323;49.394;8.434;2023-07-02T00:49:48;19.10;99.90
19817;DHT22;68323;49.394;8.434;2023-07-02T00:52:15;19.00;99.90
19817;DHT22;68323;49.394;8.434;2023-07-02T00:54:40;19.00;99.90
19817;DHT22;68323;49.394;8.434;2023-07-02T00:57:06;19.00;99.90
19817;DHT22;68323;49.394;8.434;2023-07-02T00:59:33;19.00;99.90
19817;DHT22;68323;49.394;8.434;2023-07-02T01:02:06;18.90;99.90
19817;DHT22;68323;49.394;8.434;2023-07-02T01:04:32;18.90;99.90
19817;DHT22;68323;49.394;8.434;2023-07-02T01:06:57;18.80;99.90
19817;DHT22;68323;49.394;8.434;2023-07-02T01:09:24;18.80;99.90
19817;DHT22;68323;49.394;8.434;2023-07-02T01:11:58;18.80;99.90
19817;DHT22;68323;49.394;8.434;2023-07-02T01:14:39;18.80;99.90
19817;DHT22;68323;49.394;8.434;2023-07-02T01:17:06;18.90;99.90
19817;DHT22;68323;49.394;8.434;2023-07-02T01:19:45;18.90;99.90
19817;DHT22;68323;49.394;8.434;2023-07-02T01:22:11;18.90;99.90
19817;DHT22;68323;49.394;8.434;2023-07-02T01:24:39;18.90;99.90
19817;DHT22;68323;49.394;8.434;2023-07-02T01:27:05;18.90;99.90
19817;DHT22;68323;49.394;8.434;2023-07-02T01:29:31;18.90;99.90
19817;DHT22;68323;49.394;8.434;2023-07-02T01:31:57;18.90;99.90
19817;DHT22;68323;49.394;8.434;2023-07-02T01:34:22;18.90;99.90
19817;DHT22;68323;49.394;8.434;2023-07-02T01:36:48;18.90;99.90
19817;DHT22;68323;49.394;8.434;2023-07-02T01:39:15;18.90;99.90
19817;DHT22;68323;49.394;8.434;2023-07-02T01:41:49;18.90;99.90
19817;DHT22;68323;49.394;8.434;2023-07-02T01:44:15;18.80;99.90
19817;DHT22;68323;49.394;8.434;2023-07-02T01:46:40;18.90;99.90
19817;DHT22;68323;49.394;8.434;2023-07-02T01:49:06;18.80;99.90
19817;DHT22;68323;49.394;8.434;2023-07-02T01:51:32;18.80;99.90
19817;DHT22;68323;49.394;8.434;2023-07-02T01:53:57;18.80;99.90
19817;DHT22;68323;49.394;8.434;2023-07-02T01:56:23;18.80;99.90
19817;DHT22;68323;49.394;8.434;2023-07-02T01:58:48;18.80;99.90
19817;DHT22;68323;49.394;8.434;2023-07-02T02:01:14;18.80;99.90
19817;DHT22;68323;49.394;8.434;2023-07-02T02:03:39;18.80;99.90
19817;DHT22;68323;49.394;8.434;2023-07-02T02:06:05;18.80;99.90
19817;DHT22;68323;49.394;8.434;2023-07-02T02:08:30;18.90;99.90
19817;DHT22;68323;49.394;8.434;2023-07-02T02:10:56;18.90;99.90
19817;DHT22;68323;49.394;8.434;2023-07-02T02:13:21;18.90;99.90
19817;DHT22;68323;49.394;8.434;2023-07-02T02:15:47;18.90;99.90
19817;DHT22;68323;49.394;8.434;2023-07-02T02:18:12;18.90;99.90
19817;DHT22;68323;49.394;8.434;2023-07-02T02:20:39;18.90;99.90
19817;DHT22;68323;49.394;8.434;2023-07-02T02:23:04;18.90;99.90
19817;DHT22;68323;49.394;8.434;2023-07-02T02:25:30;18.90;99.90
19817;DHT22;68323;49.394;8.434;2023-07-02T02:27:55;18.80;99.90
19817;DHT22;68323;49.394;8.434;2023-07-02T02:30:21;18.80;99.90
19817;DHT22;68323;49.394;8.434;2023-07-02T02:32:46;18.80;99.90
19817;DHT22;68323;49.394;8.434;2023-07-02T02:35:12;18.80;99.90
19817;DHT22;68323;49.394;8.434;2023-07-02T02:37:38;18.70;99.90
19817;DHT22;68323;49.394;8.434;2023-07-02T02:40:06;18.70;99.90
19817;DHT22;68323;49.394;8.434;2023-07-02T02:42:32;18.60;99.90
19817;DHT22;68323;49.394;8.434;2023-07-02T02:44:58;18.60;99.90
19817;DHT22;68323;49.394;8.434;2023-07-02T02:47:23;18.50;99.90
19817;DHT22;68323;49.394;8.434;2023-07-02T02:49:49;18.40;99.90
19817;DHT22;68323;49.394;8.434;2023-07-02T02:52:14;18.30;99.90
19817;DHT22;68323;49.394;8.434;2023-07-02T02:54:40;18.30;99.90
19817;DHT22;68323;49.394;8.434;2023-07-02T02:57:06;18.20;99.90
19817;DHT22;68323;49.394;8.434;2023-07-02T02:59:31;18.20;99.90
19817;DHT22;68323;49.394;8.434;2023-07-02T03:01:57;18.10;99.90
19817;DHT22;68323;49.394;8.434;2023-07-02T03:04:23;18.10;99.90
19817;DHT22;68323;49.394;8.434;2023-07-02T03:06:52;18.00;99.90
19817;DHT22;68323;49.394;8.434;2023-07-02T03:09:21;17.90;99.90
19817;DHT22;68323;49.394;8.434;2023-07-02T03:11:47;17.80;99.90
19817;DHT22;68323;49.394;8.434;2023-07-02T03:14:13;17.70;99.90
19817;DHT22;68323;49.394;8.434;2023-07-02T03:16:40;17.60;99.90
19817;DHT22;68323;49.394;8.434;2023-07-02T03:19:06;17.60;99.90
19817;DHT22;68323;49.394;8.434;2023-07-02T03:21:31;17.50;99.90
19817;DHT22;68323;49.394;8.434;2023-07-02T03:23:57;17.50;99.90
19817;DHT22;68323;49.394;8.434;2023-07-02T03:26:23;17.50;99.90
19817;DHT22;68323;49.394;8.434;2023-07-02T03:28:49;17.40;99.90
19817;DHT22;68323;49.394;8.434;2023-07-02T03:31:14;17.40;99.90
19817;DHT22;68323;49.394;8.434;2023-07-02T03:33:40;17.30;99.90
19817;DHT22;68323;49.394;8.434;2023-07-02T03:36:06;17.30;99.90
19817;DHT22;68323;49.394;8.434;2023-07-02T03:38:32;17.30;99.90
19817;DHT22;68323;49.394;8.434;2023-07-02T03:40:57;17.30;99.90
19817;DHT22;68323;49.394;8.434;2023-07-02T03:43:23;17.20;99.90
19817;DHT22;68323;49.394;8.434;2023-07-02T03:45:51;17.20;99.90
19817;DHT22;68323;49.394;8.434;2023-07-02T03:48:16;17.20;99.90
19817;DHT22;68323;49.394;8.434;2023-07-02T03:50:42;17.20;99.90
19817;DHT22;68323;49.394;8.434;2023-07-02T03:53:08;17.20;99.90
19817;DHT22;68323;49.394;8.434;2023-07-02T03:55:33;17.10;99.90
19817;DHT22;68323;49.394;8.434;2023-07-02T03:57:59;17.20;99.90
19817;DHT22;68323;49.394;8.434;2023-07-02T04:00:24;17.20;99.90
19817;DHT22;68323;49.394;8.434;2023-07-02T04:02:50;17.20;99.90
19817;DHT22;68323;49.394;8.434;2023-07-02T04:05:15;17.30;99.90
19817;DHT22;68323;49.394;8.434;2023-07-02T04:07:41;17.30;99.90
19817;DHT22;68323;49.394;8.434;2023-07-02T04:10:07;17.40;99.90
19817;DHT22;68323;49.394;8.434;2023-07-02T04:12:33;17.40;99.90
19817;DHT22;68323;49.394;8.434;2023-07-02T04:14:58;17.50;99.90
19817;DHT22;68323;49.394;8.434;2023-07-02T04:17:24;17.60;99.90
19817;DHT22;68323;49.394;8.434;2023-07-02T04:19:49;17.60;99.90
19817;DHT22;68323;49.394;8.434;2023-07-02T04:22:15;17.70;99.90
19817;DHT22;68323;49.394;8.434;2023-07-02T04:24:41;17.80;99.90
19817;DHT22;68323;49.394;8.434;2023-07-02T04:27:06;17.80;99.90
19817;DHT22;68323;49.394;8.434;2023-07-02T04:29:33;17.90;99.90
19817;DHT22;68323;49.394;8.434;2023-07-02T04:31:58;18.00;99.90
19817;DHT22;68323;49.394;8.434;2023-07-02T04:34:24;18.10;99.90
19817;DHT22;68323;49.394;8.434;2023-07-02T04:36:50;18.20;99.90
19817;DHT22;68323;49.394;8.434;2023-07-02T04:39:16;18.40;99.90
19817;DHT22;68323;49.394;8.434;2023-07-02T04:41:42;18.40;99.90
19817;DHT22;68323;49.394;8.434;2023-07-02T04:44:07;18.50;99.90
19817;DHT22;68323;49.394;8.434;2023-07-02T04:46:33;18.60;99.90
19817;DHT22;68323;49.394;8.434;2023-07-02T04:48:59;18.70;99.90
19817;DHT22;68323;49.394;8.434;2023-07-02T04:51:24;18.80;99.90
19817;DHT22;68323;49.394;8.434;2023-07-02T04:53:50;18.90;99.90
19817;DHT22;68323;49.394;8.434;2023-07-02T04:56:15;19.00;99.90
19817;DHT22;68323;49.394;8.434;2023-07-02T04:58:41;19.20;99.90
19817;DHT22;68323;49.394;8.434;2023-07-02T05:01:06;19.30;99.90
19817;DHT22;68323;49.394;8.434;2023-07-02T05:03:32;19.40;99.90
19817;DHT22;68323;49.394;8.434;2023-07-02T05:05:57;19.60;99.90
19817;DHT22;68323;49.394;8.434;2023-07-02T05:08:23;19.70;99.90
19817;DHT22;68323;49.394;8.434;2023-07-02T05:10:48;19.70;99.90
19817;DHT22;68323;49.394;8.434;2023-07-02T05:13:14;19.80;99.90
19817;DHT22;68323;49.394;8.434;2023-07-02T05:15:40;19.90;99.90
19817;DHT22;68323;49.394;8.434;2023-07-02T05:18:05;20.00;99.90
19817;DHT22;68323;49.394;8.434;2023-07-02T05:20:32;20.10;99.90
19817;DHT22;68323;49.394;8.434;2023-07-02T05:22:57;20.00;99.90
19817;DHT22;68323;49.394;8.434;2023-07-02T05:25:23;20.00;99.90
19817;DHT22;68323;49.394;8.434;2023-07-02T05:27:48;20.00;99.90
19817;DHT22;68323;49.394;8.434;2023-07-02T05:30:14;20.20;99.90
19817;DHT22;68323;49.394;8.434;2023-07-02T05:32:39;20.50;99.90
19817;DHT22;68323;49.394;8.434;2023-07-02T05:35:05;21.10;99.90
19817;DHT22;68323;49.394;8.434;2023-07-02T05:37:31;21.80;99.90
19817;DHT22;68323;49.394;8.434;2023-07-02T05:39:56;22.50;97.00
19817;DHT22;68323;49.394;8.434;2023-07-02T05:42:22;23.10;94.50
19817;DHT22;68323;49.394;8.434;2023-07-02T05:44:47;23.80;92.30
19817;DHT22;68323;49.394;8.434;2023-07-02T05:47:13;24.40;89.90
19817;DHT22;68323;49.394;8.434;2023-07-02T05:49:38;24.90;84.90
19817;DHT22;68323;49.394;8.434;2023-07-02T05:52:06;25.50;80.30
19817;DHT22;68323;49.394;8.434;2023-07-02T05:54:31;26.00;76.20
19817;DHT22;68323;49.394;8.434;2023-07-02T05:56:57;26.40;71.90
19817;DHT22;68323;49.394;8.434;2023-07-02T05:59:22;26.80;69.80
19817;DHT22;68323;49.394;8.434;2023-07-02T06:01:48;27.20;67.60
19817;DHT22;68323;49.394;8.434;2023-07-02T06:04:14;27.50;65.10
19817;DHT22;68323;49.394;8.434;2023-07-02T06:06:40;27.70;63.50
19817;DHT22;68323;49.394;8.434;2023-07-02T06:09:05;27.90;62.50
19817;DHT22;68323;49.394;8.434;2023-07-02T06:11:31;28.10;61.80
19817;DHT22;68323;49.394;8.434;2023-07-02T06:13:56;28.30;60.40
19817;DHT22;68323;49.394;8.434;2023-07-02T06:16:22;28.40;60.10
19817;DHT22;68323;49.394;8.434;2023-07-02T06:18:47;28.50;59.50
19817;DHT22;68323;49.394;8.434;2023-07-02T06:21:13;28.80;59.50
19817;DHT22;68323;49.394;8.434;2023-07-02T06:23:42;29.00;57.30
19817;DHT22;68323;49.394;8.434;2023-07-02T06:26:09;29.00;56.90
19817;DHT22;68323;49.394;8.434;2023-07-02T06:28:34;29.10;56.10
19817;DHT22;68323;49.394;8.434;2023-07-02T06:31:00;29.20;56.20
19817;DHT22;68323;49.394;8.434;2023-07-02T06:33:26;29.40;56.10
19817;DHT22;68323;49.394;8.434;2023-07-02T06:35:51;29.80;55.10
19817;DHT22;68323;49.394;8.434;2023-07-02T06:38:17;30.10;54.80
19817;DHT22;68323;49.394;8.434;2023-07-02T06:40:42;30.40;53.60
19817;DHT22;68323;49.394;8.434;2023-07-02T06:43:08;30.60;53.00
19817;DHT22;68323;49.394;8.434;2023-07-02T06:45:33;30.80;52.70
19817;DHT22;68323;49.394;8.434;2023-07-02T06:47:59;31.10;51.50
19817;DHT22;68323;49.394;8.434;2023-07-02T06:50:24;31.20;51.10
19817;DHT22;68323;49.394;8.434;2023-07-02T06:52:50;31.50;51.30
19817;DHT22;68323;49.394;8.434;2023-07-02T06:55:15;31.80;49.50
19817;DHT22;68323;49.394;8.434;2023-07-02T06:57:45;32.00;48.50
19817;DHT22;68323;49.394;8.434;2023-07-02T07:00:14;32.00;47.80
19817;DHT22;68323;49.394;8.434;2023-07-02T07:02:40;32.20;47.80
19817;DHT22;68323;49.394;8.434;2023-07-02T07:05:06;32.30;47.30
19817;DHT22;68323;49.394;8.434;2023-07-02T07:07:32;32.50;46.80
19817;DHT22;68323;49.394;8.434;2023-07-02T07:09:57;32.60;46.50
19817;DHT22;68323;49.394;8.434;2023-07-02T07:12:23;32.70;46.20
19817;DHT22;68323;49.394;8.434;2023-07-02T07:14:49;32.70;45.10
19817;DHT22;68323;49.394;8.434;2023-07-02T07:17:14;32.80;45.20
19817;DHT22;68323;49.394;8.434;2023-07-02T07:19:40;33.10;45.10
19817;DHT22;68323;49.394;8.434;2023-07-02T07:22:05;33.30;44.30
19817;DHT22;68323;49.394;8.434;2023-07-02T07:24:31;33.50;43.90
19817;DHT22;68323;49.394;8.434;2023-07-02T07:29:22;33.90;42.10
19817;DHT22;68323;49.394;8.434;2023-07-02T07:31:48;34.00;43.20
19817;DHT22;68323;49.394;8.434;2023-07-02T07:34:14;34.30;42.90
19817;DHT22;68323;49.394;8.434;2023-07-02T07:36:39;34.40;43.00
19817;DHT22;68323;49.394;8.434;2023-07-02T07:39:05;34.50;41.80
19817;DHT22;68323;49.394;8.434;2023-07-02T07:41:30;34.60;42.10
19817;DHT22;68323;49.394;8.434;2023-07-02T07:43:57;34.50;40.80
19817;DHT22;68323;49.394;8.434;2023-07-02T07:46:23;34.10;40.60
19817;DHT22;68323;49.394;8.434;2023-07-02T07:48:49;34.00;41.10
19817;DHT22;68323;49.394;8.434;2023-07-02T07:51:14;33.90;41.40
19817;DHT22;68323;49.394;8.434;2023-07-02T07:53:40;33.90;40.50
19817;DHT22;68323;49.394;8.434;2023-07-02T07:56:05;34.00;40.90
19817;DHT22;68323;49.394;8.434;2023-07-02T07:58:31;34.10;41.20
19817;DHT22;68323;49.394;8.434;2023-07-02T08:00:59;34.30;40.90
19817;DHT22;68323;49.394;8.434;2023-07-02T08:03:25;34.50;40.30
19817;DHT22;68323;49.394;8.434;2023-07-02T08:05:50;34.70;39.90
19817;DHT22;68323;49.394;8.434;2023-07-02T08:08:16;34.30;39.40
19817;DHT22;68323;49.394;8.434;2023-07-02T08:10:41;34.10;40.20
19817;DHT22;68323;49.394;8.434;2023-07-02T08:13:08;34.20;40.10
19817;DHT22;68323;49.394;8.434;2023-07-02T08:15:34;34.40;40.00
19817;DHT22;68323;49.394;8.434;2023-07-02T08:17:59;34.70;39.40
19817;DHT22;68323;49.394;8.434;2023-07-02T08:20:25;35.10;39.10
19817;DHT22;68323;49.394;8.434;2023-07-02T08:22:51;35.40;38.40
19817;DHT22;68323;49.394;8.434;2023-07-02T08:25:17;35.70;38.00
19817;DHT22;68323;49.394;8.434;2023-07-02T08:27:43;35.80;37.90
19817;DHT22;68323;49.394;8.434;2023-07-02T08:30:09;35.80;37.60
19817;DHT22;68323;49.394;8.434;2023-07-02T08:32:35;35.80;38.10
19817;DHT22;68323;49.394;8.434;2023-07-02T08:35:00;35.90;37.80
19817;DHT22;68323;49.394;8.434;2023-07-02T08:37:26;36.20;37.20
19817;DHT22;68323;49.394;8.434;2023-07-02T08:39:52;36.40;37.00
19817;DHT22;68323;49.394;8.434;2023-07-02T08:42:17;36.50;36.70
19817;DHT22;68323;49.394;8.434;2023-07-02T08:44:46;36.50;36.00
19817;DHT22;68323;49.394;8.434;2023-07-02T08:47:13;36.50;36.50
19817;DHT22;68323;49.394;8.434;2023-07-02T08:49:39;36.30;36.30
19817;DHT22;68323;49.394;8.434;2023-07-02T08:52:05;36.30;36.50
19817;DHT22;68323;49.394;8.434;2023-07-02T08:54:31;36.30;37.40
19817;DHT22;68323;49.394;8.434;2023-07-02T08:56:57;36.10;35.80
19817;DHT22;68323;49.394;8.434;2023-07-02T08:59:22;35.60;37.90
19817;DHT22;68323;49.394;8.434;2023-07-02T09:01:50;35.70;37.20
19817;DHT22;68323;49.394;8.434;2023-07-02T09:04:20;36.10;36.90
19817;DHT22;68323;49.394;8.434;2023-07-02T09:06:47;36.40;36.90
19817;DHT22;68323;49.394;8.434;2023-07-02T09:09:13;36.40;37.10
19817;DHT22;68323;49.394;8.434;2023-07-02T09:11:51;36.40;36.00
19817;DHT22;68323;49.394;8.434;2023-07-02T09:17:04;40.40;36.60
19817;DHT22;68323;49.394;8.434;2023-07-02T09:19:30;37.10;35.10
19817;DHT22;68323;49.394;8.434;2023-07-02T09:21:58;36.60;35.80
19817;DHT22;68323;49.394;8.434;2023-07-02T09:24:27;35.80;36.20
19817;DHT22;68323;49.394;8.434;2023-07-02T09:26:59;35.40;37.10
19817;DHT22;68323;49.394;8.434;2023-07-02T09:29:32;35.00;37.00
19817;DHT22;68323;49.394;8.434;2023-07-02T09:32:05;35.20;36.50
19817;DHT22;68323;49.394;8.434;2023-07-02T09:34:36;35.60;36.80
19817;DHT22;68323;49.394;8.434;2023-07-02T09:37:02;36.10;35.60
19817;DHT22;68323;49.394;8.434;2023-07-02T09:39:30;36.50;35.10
19817;DHT22;68323;49.394;8.434;2023-07-02T09:41:57;36.80;34.90
19817;DHT22;68323;49.394;8.434;2023-07-02T09:44:28;37.30;33.40
19817;DHT22;68323;49.394;8.434;2023-07-02T09:47:05;37.70;33.00
19817;DHT22;68323;49.394;8.434;2023-07-02T09:49:36;38.00;33.10
19817;DHT22;68323;49.394;8.434;2023-07-02T09:52:11;37.50;32.00
19817;DHT22;68323;49.394;8.434;2023-07-02T09:54:38;37.20;33.50
19817;DHT22;68323;49.394;8.434;2023-07-02T09:57:05;37.10;33.60
19817;DHT22;68323;49.394;8.434;2023-07-02T09:59:31;37.00;33.70
19817;DHT22;68323;49.394;8.434;2023-07-02T10:01:57;36.90;33.20
19817;DHT22;68323;49.394;8.434;2023-07-02T10:04:23;36.90;33.60
19817;DHT22;68323;49.394;8.434;2023-07-02T10:09:19;37.00;33.30
19817;DHT22;68323;49.394;8.434;2023-07-02T10:11:45;36.90;33.70
19817;DHT22;68323;49.394;8.434;2023-07-02T10:14:11;36.80;33.80
19817;DHT22;68323;49.394;8.434;2023-07-02T10:16:53;36.90;34.10
19817;DHT22;68323;49.394;8.434;2023-07-02T10:19:19;37.10;33.80
19817;DHT22;68323;49.394;8.434;2023-07-02T10:21:46;37.00;33.70
19817;DHT22;68323;49.394;8.434;2023-07-02T10:24:13;37.00;33.70
19817;DHT22;68323;49.394;8.434;2023-07-02T10:26:38;36.90;33.30
19817;DHT22;68323;49.394;8.434;2023-07-02T10:29:06;36.40;33.60
19817;DHT22;68323;49.394;8.434;2023-07-02T10:31:32;35.40;35.00
19817;DHT22;68323;49.394;8.434;2023-07-02T10:33:57;34.10;36.60
19817;DHT22;68323;49.394;8.434;2023-07-02T10:36:24;33.20;38.20
19817;DHT22;68323;49.394;8.434;2023-07-02T10:38:50;33.00;38.40
19817;DHT22;68323;49.394;8.434;2023-07-02T10:41:28;33.20;37.10
19817;DHT22;68323;49.394;8.434;2023-07-02T10:43:54;33.60;36.90
19817;DHT22;68323;49.394;8.434;2023-07-02T10:46:22;34.20;36.00
19817;DHT22;68323;49.394;8.434;2023-07-02T10:49:01;34.70;35.30
19817;DHT22;68323;49.394;8.434;2023-07-02T10:51:26;35.10;34.30
19817;DHT22;68323;49.394;8.434;2023-07-02T10:53:58;35.20;33.90
19817;DHT22;68323;49.394;8.434;2023-07-02T10:56:24;35.40;34.50
19817;DHT22;68323;49.394;8.434;2023-07-02T10:58:51;35.50;34.00
19817;DHT22;68323;49.394;8.434;2023-07-02T11:04:10;34.50;34.90
19817;DHT22;68323;49.394;8.434;2023-07-02T11:06:36;33.90;35.60
19817;DHT22;68323;49.394;8.434;2023-07-02T11:09:01;33.30;35.80
19817;DHT22;68323;49.394;8.434;2023-07-02T11:11:29;32.90;36.90
19817;DHT22;68323;49.394;8.434;2023-07-02T11:13:54;32.30;38.00
19817;DHT22;68323;49.394;8.434;2023-07-02T11:16:27;31.70;41.40
19817;DHT22;68323;49.394;8.434;2023-07-02T11:19:10;30.80;40.60
19817;DHT22;68323;49.394;8.434;2023-07-02T11:21:36;30.20;40.30
19817;DHT22;68323;49.394;8.434;2023-07-02T11:24:07;29.80;41.40
19817;DHT22;68323;49.394;8.434;2023-07-02T11:26:37;29.60;40.30
19817;DHT22;68323;49.394;8.434;2023-07-02T11:29:06;29.50;40.40
19817;DHT22;68323;49.394;8.434;2023-07-02T11:31:33;29.40;41.00
19817;DHT22;68323;49.394;8.434;2023-07-02T11:33:59;29.40;41.30
19817;DHT22;68323;49.394;8.434;2023-07-02T11:36:24;29.60;41.30
19817;DHT22;68323;49.394;8.434;2023-07-02T11:38:51;29.70;40.90
19817;DHT22;68323;49.394;8.434;2023-07-02T11:41:18;29.70;41.00
19817;DHT22;68323;49.394;8.434;2023-07-02T11:43:44;29.90;40.90
19817;DHT22;68323;49.394;8.434;2023-07-02T11:46:10;30.00;40.30
19817;DHT22;68323;49.394;8.434;2023-07-02T11:48:35;30.00;40.30
19817;DHT22;68323;49.394;8.434;2023-07-02T11:51:01;29.90;40.60
19817;DHT22;68323;49.394;8.434;2023-07-02T11:53:26;29.80;41.10
19817;DHT22;68323;49.394;8.434;2023-07-02T11:55:52;29.70;40.90
19817;DHT22;68323;49.394;8.434;2023-07-02T11:58:17;29.70;41.60
19817;DHT22;68323;49.394;8.434;2023-07-02T12:00:43;29.50;41.60
19817;DHT22;68323;49.394;8.434;2023-07-02T12:03:08;29.50;41.90
19817;DHT22;68323;49.394;8.434;2023-07-02T12:05:35;29.50;41.80
19817;DHT22;68323;49.394;8.434;2023-07-02T12:08:01;29.40;41.50
19817;DHT22;68323;49.394;8.434;2023-07-02T12:10:27;29.40;42.20
19817;DHT22;68323;49.394;8.434;2023-07-02T12:12:53;29.30;42.40
19817;DHT22;68323;49.394;8.434;2023-07-02T12:15:18;29.20;42.30
19817;DHT22;68323;49.394;8.434;2023-07-02T12:17:44;29.20;42.10
19817;DHT22;68323;49.394;8.434;2023-07-02T12:20:10;29.10;42.10
19817;DHT22;68323;49.394;8.434;2023-07-02T12:22:35;29.00;42.20
19817;DHT22;68323;49.394;8.434;2023-07-02T12:25:01;29.00;41.70
19817;DHT22;68323;49.394;8.434;2023-07-02T12:27:26;29.00;42.10
19817;DHT22;68323;49.394;8.434;2023-07-02T12:29:52;29.00;42.30
19817;DHT22;68323;49.394;8.434;2023-07-02T12:32:18;29.10;41.60
19817;DHT22;68323;49.394;8.434;2023-07-02T12:34:44;29.30;41.40
19817;DHT22;68323;49.394;8.434;2023-07-02T12:37:09;29.50;41.40
19817;DHT22;68323;49.394;8.434;2023-07-02T12:39:35;29.60;41.00
19817;DHT22;68323;49.394;8.434;2023-07-02T12:42:00;29.70;40.90
19817;DHT22;68323;49.394;8.434;2023-07-02T12:44:26;29.70;40.70
19817;DHT22;68323;49.394;8.434;2023-07-02T12:46:51;29.80;40.70
19817;DHT22;68323;49.394;8.434;2023-07-02T12:49:17;29.80;40.50
19817;DHT22;68323;49.394;8.434;2023-07-02T12:51:42;29.90;41.30
19817;DHT22;68323;49.394;8.434;2023-07-02T12:54:08;30.00;41.30
19817;DHT22;68323;49.394;8.434;2023-07-02T12:56:34;30.10;41.20
19817;DHT22;68323;49.394;8.434;2023-07-02T12:59:02;30.00;40.70
19817;DHT22;68323;49.394;8.434;2023-07-02T13:01:27;29.90;40.80
19817;DHT22;68323;49.394;8.434;2023-07-02T13:03:53;29.80;41.20
19817;DHT22;68323;49.394;8.434;2023-07-02T13:06:19;29.80;41.00
19817;DHT22;68323;49.394;8.434;2023-07-02T13:08:44;29.80;41.50
19817;DHT22;68323;49.394;8.434;2023-07-02T13:11:10;29.70;41.90
19817;DHT22;68323;49.394;8.434;2023-07-02T13:13:35;29.60;41.80
19817;DHT22;68323;49.394;8.434;2023-07-02T13:16:04;29.50;42.30
19817;DHT22;68323;49.394;8.434;2023-07-02T13:18:29;29.40;42.30
19817;DHT22;68323;49.394;8.434;2023-07-02T13:20:55;29.30;42.50
19817;DHT22;68323;49.394;8.434;2023-07-02T13:23:20;29.20;42.40
19817;DHT22;68323;49.394;8.434;2023-07-02T13:25:46;29.20;42.60
19817;DHT22;68323;49.394;8.434;2023-07-02T13:28:12;29.30;42.60
19817;DHT22;68323;49.394;8.434;2023-07-02T13:30:37;29.40;42.50
19817;DHT22;68323;49.394;8.434;2023-07-02T13:33:03;29.60;42.50
19817;DHT22;68323;49.394;8.434;2023-07-02T13:35:28;29.70;42.30
19817;DHT22;68323;49.394;8.434;2023-07-02T13:37:54;29.70;41.30
19817;DHT22;68323;49.394;8.434;2023-07-02T13:40:19;29.80;41.90
19817;DHT22;68323;49.394;8.434;2023-07-02T13:42:45;29.70;42.30
19817;DHT22;68323;49.394;8.434;2023-07-02T13:45:11;29.60;42.50
19817;DHT22;68323;49.394;8.434;2023-07-02T13:47:37;29.50;42.40
19817;DHT22;68323;49.394;8.434;2023-07-02T13:50:03;29.60;42.40
19817;DHT22;68323;49.394;8.434;2023-07-02T13:52:30;29.60;42.50
19817;DHT22;68323;49.394;8.434;2023-07-02T13:54:55;29.60;42.50
19817;DHT22;68323;49.394;8.434;2023-07-02T13:57:21;29.50;42.00
19817;DHT22;68323;49.394;8.434;2023-07-02T13:59:47;29.50;42.60
19817;DHT22;68323;49.394;8.434;2023-07-02T14:02:14;29.50;42.10
19817;DHT22;68323;49.394;8.434;2023-07-02T14:04:39;29.50;41.70
19817;DHT22;68323;49.394;8.434;2023-07-02T14:07:05;29.50;42.70
19817;DHT22;68323;49.394;8.434;2023-07-02T14:09:31;29.40;42.40
19817;DHT22;68323;49.394;8.434;2023-07-02T14:11:57;29.30;42.20
19817;DHT22;68323;49.394;8.434;2023-07-02T14:14:22;29.40;42.30
19817;DHT22;68323;49.394;8.434;2023-07-02T14:16:48;29.40;41.90
19817;DHT22;68323;49.394;8.434;2023-07-02T14:19:13;29.30;42.00
19817;DHT22;68323;49.394;8.434;2023-07-02T14:21:40;29.30;41.60
19817;DHT22;68323;49.394;8.434;2023-07-02T14:24:06;29.40;41.60
19817;DHT22;68323;49.394;8.434;2023-07-02T14:26:31;29.40;41.60
19817;DHT22;68323;49.394;8.434;2023-07-02T14:28:57;29.50;41.70
19817;DHT22;68323;49.394;8.434;2023-07-02T14:31:23;29.50;41.70
19817;DHT22;68323;49.394;8.434;2023-07-02T14:33:49;29.40;41.70
19817;DHT22;68323;49.394;8.434;2023-07-02T14:36:15;29.30;41.70
19817;DHT22;68323;49.394;8.434;2023-07-02T14:38:41;29.30;42.50
19817;DHT22;68323;49.394;8.434;2023-07-02T14:41:07;29.30;42.10
19817;DHT22;68323;49.394;8.434;2023-07-02T14:43:32;29.30;41.80
19817;DHT22;68323;49.394;8.434;2023-07-02T14:46:01;29.20;42.70
19817;DHT22;68323;49.394;8.434;2023-07-02T14:48:27;29.20;42.50
19817;DHT22;68323;49.394;8.434;2023-07-02T14:50:58;29.00;42.00
19817;DHT22;68323;49.394;8.434;2023-07-02T14:53:25;28.90;42.80
19817;DHT22;68323;49.394;8.434;2023-07-02T14:55:54;28.80;43.00
19817;DHT22;68323;49.394;8.434;2023-07-02T14:58:19;28.80;43.30
19817;DHT22;68323;49.394;8.434;2023-07-02T15:00:47;28.80;42.40
19817;DHT22;68323;49.394;8.434;2023-07-02T15:03:13;28.70;42.30
19817;DHT22;68323;49.394;8.434;2023-07-02T15:05:39;28.80;42.60
19817;DHT22;68323;49.394;8.434;2023-07-02T15:08:07;28.90;42.60
19817;DHT22;68323;49.394;8.434;2023-07-02T15:10:33;28.90;42.20
19817;DHT22;68323;49.394;8.434;2023-07-02T15:12:58;29.00;42.30
19817;DHT22;68323;49.394;8.434;2023-07-02T15:15:24;29.20;42.30
19817;DHT22;68323;49.394;8.434;2023-07-02T15:17:49;29.20;41.70
19817;DHT22;68323;49.394;8.434;2023-07-02T15:20:15;29.10;41.70
19817;DHT22;68323;49.394;8.434;2023-07-02T15:22:41;28.90;42.10
19817;DHT22;68323;49.394;8.434;2023-07-02T15:25:07;28.90;42.80
19817;DHT22;68323;49.394;8.434;2023-07-02T15:27:32;28.90;43.30
19817;DHT22;68323;49.394;8.434;2023-07-02T15:29:58;29.00;43.10
19817;DHT22;68323;49.394;8.434;2023-07-02T15:32:24;29.00;42.90
19817;DHT22;68323;49.394;8.434;2023-07-02T15:34:49;29.00;42.70